Time;durP1;ratioP1;P1;durP2;ratioP2;P2;SDS_P1;SDS_P2;PMS_P1;PMS_P2;Temp;Humidity;BMP_temperature;BMP_pressure;BME280_temperature;BME280_humidity;BME280_pressure;Samples;Min_cycle;Max_cycle;Signal;HPM_P1;HPM_P2
2022/02/28 00:00:19;;;;;;;590.78;560.75;;;;;;;1.82;71.09;103240.72;669429;29;113839;-68
2022/02/28 00:00:43;;;;;;;576.17;547.05;;;;;;;1.83;71.18;103247.78;673193;29;21946;-69
2022/02/28 00:01:07;;;;;;;594.53;564.17;;;;;;;1.83;71.21;103245.13;670819;29;92326;-68
2022/02/28 00:01:29;;;;;;;595.42;565.10;;;;;;;1.82;71.17;103240.72;669866;29;93112;-69
2022/02/28 00:01:50;;;;;;;575.58;546.53;;;;;;;1.83;71.16;103245.13;672464;29;45246;-69
2022/02/28 00:02:12;;;;;;;595.60;565.15;;;;;;;1.82;71.39;103243.38;673296;29;23454;-69
2022/02/28 00:02:33;;;;;;;623.75;591.50;;;;;;;1.82;71.39;103246.03;673286;29;46305;-68
2022/02/28 00:02:54;;;;;;;608.22;577.00;;;;;;;1.84;71.40;103245.06;673641;29;12119;-69
2022/02/28 00:03:15;;;;;;;590.72;560.70;;;;;;;1.84;71.46;103250.41;673724;29;22405;-68
2022/02/28 00:03:37;;;;;;;577.25;548.15;;;;;;;1.84;71.16;103246.88;673580;29;22399;-68
2022/02/28 00:03:58;;;;;;;596.30;565.85;;;;;;;1.86;71.39;103250.34;672491;29;46425;-68
2022/02/28 00:04:21;;;;;;;622.90;590.90;;;;;;;1.85;71.40;103252.16;673607;29;22409;-70
2022/02/28 00:04:42;;;;;;;610.78;579.63;;;;;;;1.84;71.25;103239.75;671968;29;69478;-69
2022/02/28 00:05:05;;;;;;;593.65;563.55;;;;;;;1.88;71.23;103248.47;673678;29;22448;-68
2022/02/28 00:05:27;;;;;;;579.42;550.22;;;;;;;1.87;71.23;103252.94;671851;29;69372;-69
2022/02/28 00:05:48;;;;;;;594.08;563.83;;;;;;;1.85;71.17;103241.50;672305;29;46236;-68
2022/02/28 00:06:09;;;;;;;589.08;558.97;;;;;;;1.86;71.12;103243.22;672917;29;22361;-69
2022/02/28 00:06:30;;;;;;;528.53;502.15;;;;;;;1.86;71.17;103240.53;671967;29;46258;-69
2022/02/28 00:06:53;;;;;;;511.08;485.75;;;;;;;1.87;70.97;103242.28;673030;29;22419;-69
2022/02/28 00:07:16;;;;;;;499.35;474.70;;;;;;;1.87;71.11;103246.75;671980;29;69427;-69
2022/02/28 00:07:38;;;;;;;509.55;484.30;;;;;;;1.85;71.15;103241.50;672628;29;46286;-68
2022/02/28 00:07:59;;;;;;;520.33;494.45;;;;;;;1.86;71.11;103239.69;672652;29;44374;-69
2022/02/28 00:08:20;;;;;;;513.17;487.77;;;;;;;1.87;70.96;103242.28;673711;29;21606;-69
2022/02/28 00:08:42;;;;;;;580.55;551.03;;;;;;;1.87;71.04;103247.63;673439;29;23468;-69
2022/02/28 00:09:03;;;;;;;619.75;587.80;;;;;;;1.87;71.12;103242.28;672728;29;46501;-68
2022/02/28 00:09:24;;;;;;;605.38;574.42;;;;;;;1.85;71.06;103240.59;675041;29;900;-69
2022/02/28 00:09:45;;;;;;;590.92;560.90;;;;;;;1.86;71.06;103240.53;674024;29;22227;-69
2022/02/28 00:10:09;;;;;;;577.43;548.23;;;;;;;1.89;71.09;103247.56;674070;29;22466;-69
2022/02/28 00:10:31;;;;;;;601.17;570.38;;;;;;;1.87;71.09;103242.28;671845;29;92347;-70
2022/02/28 00:10:52;;;;;;;617.72;585.88;;;;;;;1.88;71.12;103248.47;674116;29;11668;-69
2022/02/28 00:11:14;;;;;;;605.33;574.35;;;;;;;1.89;71.05;103244.91;674038;29;23418;-69
2022/02/28 00:11:35;;;;;;;589.60;559.63;;;;;;;1.90;71.10;103246.66;671816;29;67612;-69
2022/02/28 00:11:56;;;;;;;576.13;547.05;;;;;;;1.90;71.20;103247.50;673816;29;23694;-69
2022/02/28 00:12:17;;;;;;;618.85;586.95;;;;;;;1.90;71.05;103243.97;674232;29;22063;-69
2022/02/28 00:12:39;;;;;;;626.55;594.13;;;;;;;1.89;70.98;103245.75;674104;29;23523;-69
2022/02/28 00:13:00;;;;;;;612.53;581.08;;;;;;;1.90;70.94;103243.97;673029;29;46365;-69
2022/02/28 00:13:22;;;;;;;598.85;568.30;;;;;;;1.89;71.05;103245.75;674818;29;927;-69
2022/02/28 00:13:44;;;;;;;588.03;558.10;;;;;;;1.88;71.35;103248.47;673855;29;23508;-69
2022/02/28 00:14:05;;;;;;;620.42;588.38;;;;;;;1.89;71.12;103242.22;672576;29;44394;-69
2022/02/28 00:14:27;;;;;;;619.72;587.80;;;;;;;1.90;70.94;103246.66;675016;29;876;-69
2022/02/28 00:14:48;;;;;;;604.75;573.80;;;;;;;1.89;71.12;103245.75;673992;29;22390;-69
2022/02/28 00:15:12;;;;;;;588.35;558.45;;;;;;;1.89;71.10;103242.22;674145;29;21540;-68
2022/02/28 00:15:33;;;;;;;621.63;589.42;;;;;;;1.90;71.13;103244.84;671533;29;92228;-69
2022/02/28 00:15:54;;;;;;;632.58;599.63;;;;;;;1.89;71.09;103245.75;673951;29;22402;-69
2022/02/28 00:16:16;;;;;;;622.38;590.03;;;;;;;1.89;71.15;103239.56;673125;29;21545;-68
2022/02/28 00:16:37;;;;;;;605.58;574.53;;;;;;;1.88;71.13;103246.69;672348;29;46335;-69
2022/02/28 00:16:58;;;;;;;592.50;562.22;;;;;;;1.90;71.30;103238.66;674112;29;8418;-69
2022/02/28 00:17:19;;;;;;;563.45;535.00;;;;;;;1.89;71.25;103240.41;674088;29;22405;-68
2022/02/28 00:17:42;;;;;;;569.35;540.60;;;;;;;1.89;71.31;103240.41;673571;29;22431;-70
2022/02/28 00:18:03;;;;;;;595.15;564.80;;;;;;;1.89;71.29;103242.22;672931;29;45240;-69
2022/02/28 00:18:24;;;;;;;607.70;576.65;;;;;;;1.87;71.36;103244.94;674326;29;23303;-69
2022/02/28 00:18:46;;;;;;;595.28;564.92;;;;;;;1.87;71.36;103241.44;673807;29;22271;-69
2022/02/28 00:19:07;;;;;;;612.60;581.13;;;;;;;1.88;71.33;103243.16;672922;29;46450;-68
2022/02/28 00:19:28;;;;;;;627.35;594.90;;;;;;;1.87;71.36;103239.63;673219;29;44217;-69
2022/02/28 00:19:49;;;;;;;617.17;585.45;;;;;;;1.89;71.32;103236.91;674727;29;1140;-69
2022/02/28 00:20:13;;;;;;;601.28;570.58;;;;;;;1.89;71.29;103237.75;674140;29;19041;-69
2022/02/28 00:20:35;;;;;;;626.78;594.25;;;;;;;1.90;71.36;103231.50;671482;29;92264;-69
2022/02/28 00:20:56;;;;;;;656.10;621.58;;;;;;;1.89;71.37;103236.91;673700;29;46250;-69
2022/02/28 00:21:18;;;;;;;643.28;609.72;;;;;;;1.90;71.38;103235.97;673384;29;23480;-68
2022/02/28 00:21:39;;;;;;;630.35;597.72;;;;;;;1.89;71.42;103232.44;674123;29;22358;-69
2022/02/28 00:22:01;;;;;;;613.78;582.20;;;;;;;1.91;71.30;103237.69;673183;29;45322;-70
2022/02/28 00:22:22;;;;;;;605.83;574.72;;;;;;;1.92;71.40;103236.78;673270;29;47136;-69
2022/02/28 00:22:44;;;;;;;640.70;607.25;;;;;;;1.92;71.40;103242.13;673031;29;23456;-69
2022/02/28 00:23:05;;;;;;;640.15;606.75;;;;;;;1.93;71.34;103241.19;673695;29;22390;-69
2022/02/28 00:23:27;;;;;;;626.00;593.72;;;;;;;1.91;71.34;103241.25;673993;29;21368;-69
2022/02/28 00:23:48;;;;;;;609.92;578.75;;;;;;;1.91;71.39;103227.03;674345;29;14075;-69
2022/02/28 00:24:09;;;;;;;597.03;566.67;;;;;;;1.92;71.25;103228.78;673788;29;22073;-68
2022/02/28 00:24:30;;;;;;;615.10;583.42;;;;;;;1.91;71.34;103232.38;672717;29;45238;-67
2022/02/28 00:24:52;;;;;;;632.45;599.67;;;;;;;1.90;71.44;103235.97;671356;29;1342;-69
2022/02/28 00:25:13;;;;;;;618.13;586.30;;;;;;;1.92;71.54;103234.13;669246;29;46320;-68
2022/02/28 00:25:34;;;;;;;606.10;575.15;;;;;;;1.91;71.48;103232.38;667641;29;22427;-68
2022/02/28 00:25:56;;;;;;;591.28;561.22;;;;;;;1.92;71.49;103236.78;667359;29;23404;-69
2022/02/28 00:26:18;;;;;;;620.47;588.33;;;;;;;1.90;71.38;103231.50;666351;29;23460;-68
2022/02/28 00:26:40;;;;;;;631.53;598.78;;;;;;;1.92;71.50;103237.63;665839;29;69923;-68
2022/02/28 00:27:01;;;;;;;609.85;578.58;;;;;;;1.90;71.32;103234.19;667244;29;21262;-69
2022/02/28 00:27:22;;;;;;;590.63;560.67;;;;;;;1.91;71.50;103237.69;666466;29;974;-68
2022/02/28 00:27:44;;;;;;;592.97;562.75;;;;;;;1.90;71.57;103238.66;666366;29;22385;-70
2022/02/28 00:28:07;;;;;;;622.65;590.42;;;;;;;1.92;71.52;103234.13;664422;29;69412;-69
2022/02/28 00:28:28;;;;;;;610.30;578.95;;;;;;;1.91;71.54;103238.59;665128;29;47051;-69
2022/02/28 00:28:50;;;;;;;595.20;564.88;;;;;;;1.92;71.54;103236.78;666242;29;23413;-69
2022/02/28 00:29:12;;;;;;;582.95;553.40;;;;;;;1.92;71.60;103237.63;664775;29;46453;-69
2022/02/28 00:29:33;;;;;;;625.92;593.45;;;;;;;1.91;71.36;103238.59;667291;29;69478;-68
2022/02/28 00:29:54;;;;;;;632.47;599.65;;;;;;;1.90;71.39;103235.97;668644;29;22485;-70
2022/02/28 00:30:16;;;;;;;619.42;587.47;;;;;;;1.94;71.49;103241.13;668812;29;23519;-68
2022/02/28 00:30:38;;;;;;;602.53;571.75;;;;;;;1.90;71.20;103231.50;668271;29;46327;-69
2022/02/28 00:30:59;;;;;;;588.15;558.22;;;;;;;1.91;71.19;103235.94;668748;29;23423;-68
2022/02/28 00:31:20;;;;;;;597.90;567.40;;;;;;;1.91;70.98;103243.91;669223;29;45456;-68
2022/02/28 00:31:42;;;;;;;612.80;581.28;;;;;;;1.92;71.03;103240.31;671444;29;21211;-69
2022/02/28 00:32:04;;;;;;;598.53;567.88;;;;;;;1.93;71.06;103238.53;670605;29;33117;-69
2022/02/28 00:32:26;;;;;;;608.10;576.90;;;;;;;1.93;70.99;103239.38;667681;29;39106;-69
2022/02/28 00:32:48;;;;;;;646.67;612.85;;;;;;;1.93;71.02;103238.53;668470;29;23348;-69
2022/02/28 00:33:12;;;;;;;633.67;600.72;;;;;;;1.93;70.95;103236.72;669071;29;1646;-68
2022/02/28 00:33:34;;;;;;;619.78;587.88;;;;;;;1.92;70.94;103229.66;670246;29;919;-68
2022/02/28 00:33:55;;;;;;;601.55;570.72;;;;;;;1.92;70.96;103240.31;670582;29;47452;-69
2022/02/28 00:34:16;;;;;;;596.95;566.40;;;;;;;1.94;70.92;103235.81;671699;29;22400;-69
2022/02/28 00:34:38;;;;;;;622.30;590.15;;;;;;;1.95;70.96;103236.66;672281;29;21278;-69
2022/02/28 00:34:59;;;;;;;616.10;584.33;;;;;;;1.95;71.00;103232.19;671898;29;46953;-68
2022/02/28 00:35:21;;;;;;;602.53;571.67;;;;;;;1.96;70.95;103231.28;672369;29;22411;-68
2022/02/28 00:35:43;;;;;;;589.60;559.55;;;;;;;1.96;70.90;103233.09;669018;29;45053;-69
2022/02/28 00:36:07;;;;;;;628.22;595.45;;;;;;;1.95;70.97;103234.00;669748;29;23443;-69
2022/02/28 00:36:28;;;;;;;632.63;599.60;;;;;;;1.94;70.88;103241.13;665952;29;115312;-68
2022/02/28 00:36:50;;;;;;;620.40;588.42;;;;;;;1.93;71.10;103231.41;670775;29;9532;-69
2022/02/28 00:37:11;;;;;;;604.25;573.33;;;;;;;1.95;70.94;103229.53;669559;29;46581;-68
2022/02/28 00:37:33;;;;;;;609.85;578.50;;;;;;;1.94;70.73;103235.81;670584;29;23503;-69
2022/02/28 00:37:55;;;;;;;651.75;617.63;;;;;;;1.94;70.87;103233.16;670511;29;22458;-69
2022/02/28 00:38:16;;;;;;;637.53;604.40;;;;;;;1.93;70.89;103230.53;669528;29;68305;-69
2022/02/28 00:38:38;;;;;;;623.28;591.08;;;;;;;1.94;70.82;103235.81;670912;29;21309;-69
2022/02/28 00:39:00;;;;;;;609.88;578.63;;;;;;;1.94;70.77;103233.16;670167;29;45280;-69
2022/02/28 00:39:22;;;;;;;590.17;560.20;;;;;;;1.93;70.77;103230.53;668120;29;44389;-69
2022/02/28 00:39:43;;;;;;;604.40;573.38;;;;;;;1.93;70.80;103231.41;668572;29;46410;-69
2022/02/28 00:40:06;;;;;;;642.38;608.78;;;;;;;1.93;70.85;103231.41;671168;29;22368;-68
2022/02/28 00:40:28;;;;;;;631.65;598.95;;;;;;;1.92;70.79;103234.97;669595;29;69434;-69
2022/02/28 00:40:49;;;;;;;615.15;583.53;;;;;;;1.92;70.78;103236.78;667608;29;47329;-69
2022/02/28 00:41:10;;;;;;;598.22;567.65;;;;;;;1.89;70.74;103232.44;668953;29;23710;-68
2022/02/28 00:41:31;;;;;;;629.45;596.78;;;;;;;1.91;70.77;103233.25;671738;29;23482;-69
2022/02/28 00:41:52;;;;;;;645.47;611.83;;;;;;;1.92;70.80;103236.78;672077;29;23461;-69
2022/02/28 00:42:14;;;;;;;630.47;597.83;;;;;;;1.93;70.79;103231.41;671860;29;22496;-68
2022/02/28 00:42:35;;;;;;;617.78;585.97;;;;;;;1.89;70.72;103228.91;671875;29;45253;-68
2022/02/28 00:42:57;;;;;;;601.85;571.15;;;;;;;1.87;70.70;103231.63;673290;29;21551;-68
2022/02/28 00:43:18;;;;;;;584.53;554.95;;;;;;;1.87;70.77;103236.97;671227;29;21559;-69
2022/02/28 00:43:39;;;;;;;593.30;563.08;;;;;;;1.88;70.76;103230.72;670498;29;46216;-69
2022/02/28 00:44:01;;;;;;;607.67;576.45;;;;;;;1.90;70.72;103230.66;670858;29;22385;-68
2022/02/28 00:44:22;;;;;;;596.13;565.72;;;;;;;1.88;70.81;103232.47;670536;29;45325;-68
2022/02/28 00:44:43;;;;;;;583.20;553.67;;;;;;;1.89;70.73;103237.75;668257;29;21521;-68
2022/02/28 00:45:06;;;;;;;624.53;592.25;;;;;;;1.90;70.73;103233.31;668578;29;22395;-68
2022/02/28 00:45:28;;;;;;;627.28;594.78;;;;;;;1.89;70.75;103229.75;664197;29;67473;-69
2022/02/28 00:45:49;;;;;;;614.10;582.58;;;;;;;1.90;70.74;103233.31;665937;29;45175;-70
2022/02/28 00:46:10;;;;;;;600.40;569.63;;;;;;;1.90;70.81;103233.31;668183;29;23470;-69
2022/02/28 00:46:31;;;;;;;585.50;555.70;;;;;;;1.90;70.85;103235.97;667675;29;22401;-69
2022/02/28 00:46:54;;;;;;;616.40;584.60;;;;;;;1.90;70.94;103236.84;670269;29;46306;-69
2022/02/28 00:47:15;;;;;;;626.28;593.90;;;;;;;1.91;70.78;103230.59;670839;29;46381;-69
2022/02/28 00:47:36;;;;;;;608.50;577.28;;;;;;;1.90;70.77;103235.97;670660;29;23438;-68
2022/02/28 00:47:58;;;;;;;598.55;567.92;;;;;;;1.90;70.90;103231.50;670722;29;23484;-69
2022/02/28 00:48:20;;;;;;;598.38;567.78;;;;;;;1.90;71.11;103236.84;670537;29;46327;-69
2022/02/28 00:48:41;;;;;;;642.92;609.33;;;;;;;1.90;70.94;103234.19;670328;29;45225;-69
2022/02/28 00:49:02;;;;;;;633.25;600.35;;;;;;;1.94;71.02;103234.91;671007;29;22407;-69
2022/02/28 00:49:23;;;;;;;619.53;587.67;;;;;;;1.92;70.86;103232.31;671340;29;22795;-69
2022/02/28 00:49:44;;;;;;;607.70;576.63;;;;;;;1.91;70.97;103230.59;671021;29;22406;-68
2022/02/28 00:50:09;;;;;;;609.88;578.53;;;;;;;1.93;70.88;103236.72;671031;29;20828;-69
2022/02/28 00:50:31;;;;;;;649.50;615.50;;;;;;;1.93;71.00;103227.88;665515;29;114487;-68
2022/02/28 00:50:53;;;;;;;636.08;602.95;;;;;;;1.93;70.92;103230.53;664520;29;45348;-69
2022/02/28 00:51:14;;;;;;;622.40;590.28;;;;;;;1.94;71.04;103229.59;665136;29;46443;-69
2022/02/28 00:51:36;;;;;;;610.85;579.55;;;;;;;1.93;71.02;103228.72;665669;29;23448;-69
2022/02/28 00:51:57;;;;;;;634.75;601.72;;;;;;;1.93;70.88;103236.72;667601;29;46653;-69
2022/02/28 00:52:19;;;;;;;660.72;625.97;;;;;;;1.94;70.99;103227.81;668133;29;46304;-68
2022/02/28 00:52:40;;;;;;;647.60;613.80;;;;;;;1.93;70.97;103230.53;671026;29;21332;-69
2022/02/28 00:53:02;;;;;;;640.97;607.60;;;;;;;1.91;70.95;103221.72;671229;29;23630;-69
2022/02/28 00:53:24;;;;;;;625.45;593.25;;;;;;;1.90;71.20;103230.66;670753;29;46343;-69
2022/02/28 00:53:45;;;;;;;608.80;577.60;;;;;;;1.90;71.23;103225.31;670347;29;46344;-69
2022/02/28 00:54:06;;;;;;;646.80;612.88;;;;;;;1.90;71.14;103230.66;671230;29;21482;-68
2022/02/28 00:54:27;;;;;;;660.45;625.65;;;;;;;1.91;71.26;103229.69;671531;29;23833;-69
2022/02/28 00:54:50;;;;;;;649.33;615.33;;;;;;;1.91;71.15;103230.59;669968;29;45333;-68
2022/02/28 00:55:12;;;;;;;639.72;606.33;;;;;;;1.93;71.29;103230.53;670371;29;46496;-68
2022/02/28 00:55:34;;;;;;;623.47;591.25;;;;;;;1.92;71.21;103232.31;669747;29;67528;-69
2022/02/28 00:55:56;;;;;;;635.15;602.10;;;;;;;1.96;71.21;103233.09;671266;29;22387;-69
2022/02/28 00:56:17;;;;;;;637.00;603.78;;;;;;;1.94;71.15;103230.47;669676;29;44408;-68
2022/02/28 00:56:38;;;;;;;623.00;590.85;;;;;;;1.94;71.28;103227.81;669564;29;43356;-69
2022/02/28 00:56:59;;;;;;;624.13;591.88;;;;;;;1.95;71.15;103224.19;671013;29;22535;-69
2022/02/28 00:57:21;;;;;;;658.83;624.17;;;;;;;1.95;71.11;103231.34;667949;29;21388;-69
2022/02/28 00:57:42;;;;;;;644.28;610.67;;;;;;;1.96;71.15;103223.28;667730;29;46450;-69
2022/02/28 00:58:04;;;;;;;633.80;600.88;;;;;;;1.96;71.08;103227.75;665584;29;45273;-70
2022/02/28 00:58:25;;;;;;;615.25;583.65;;;;;;;1.96;71.11;103235.75;664078;29;23474;-68
2022/02/28 00:58:47;;;;;;;616.50;584.65;;;;;;;1.93;71.05;103231.41;661057;29;4533;-69
2022/02/28 00:59:09;;;;;;;656.50;621.97;;;;;;;1.92;71.14;103226.97;656799;29;92107;-69
2022/02/28 00:59:31;;;;;;;640.85;607.45;;;;;;;1.92;71.27;103231.44;661224;29;21514;-69
2022/02/28 00:59:53;;;;;;;626.60;594.17;;;;;;;1.92;71.14;103224.31;659235;29;22262;-68
2022/02/28 01:00:16;;;;;;;613.20;581.58;;;;;;;1.92;71.12;103226.13;660907;29;45273;-69
2022/02/28 01:00:42;;;;;;;603.28;572.42;;;;;;;1.93;71.06;103225.19;664902;29;61592;-69
2022/02/28 01:01:04;;;;;;;631.90;599.15;;;;;;;1.92;70.99;103218.13;667127;29;22406;-69
2022/02/28 01:01:25;;;;;;;629.65;597.15;;;;;;;1.94;71.20;103227.81;666645;29;45248;-69
2022/02/28 01:01:46;;;;;;;616.97;585.35;;;;;;;1.94;71.09;103224.25;668629;29;21315;-69
2022/02/28 01:02:08;;;;;;;603.90;572.97;;;;;;;1.93;71.17;103217.22;667672;29;21532;-69
2022/02/28 01:02:29;;;;;;;634.15;601.17;;;;;;;1.94;71.13;103221.59;667321;29;23453;-69
2022/02/28 01:02:51;;;;;;;634.53;601.55;;;;;;;1.93;70.94;103218.06;668074;29;20884;-68
2022/02/28 01:03:12;;;;;;;613.22;581.80;;;;;;;1.92;70.88;103213.66;668174;29;44396;-68
2022/02/28 01:03:33;;;;;;;596.60;566.25;;;;;;;1.92;70.74;103223.47;671200;29;22193;-69
2022/02/28 01:03:54;;;;;;;624.95;592.63;;;;;;;1.91;70.71;103219.03;670502;29;23813;-69
2022/02/28 01:04:16;;;;;;;645.70;611.95;;;;;;;1.92;70.76;103223.47;670456;29;45025;-68
2022/02/28 01:04:38;;;;;;;631.08;598.53;;;;;;;1.89;70.74;103215.56;671817;29;21547;-68
2022/02/28 01:04:59;;;;;;;618.83;587.03;;;;;;;1.89;70.60;103219.09;672963;29;47054;-68
2022/02/28 01:05:21;;;;;;;597.58;567.08;;;;;;;1.89;70.76;103213.78;670571;29;22506;-69
2022/02/28 01:05:43;;;;;;;623.03;590.83;;;;;;;1.89;70.64;103219.09;670099;29;45327;-68
2022/02/28 01:06:05;;;;;;;640.00;606.53;;;;;;;1.90;70.59;103217.31;668329;29;69953;-70
2022/02/28 01:06:26;;;;;;;628.35;595.60;;;;;;;1.90;70.61;103217.31;669353;29;45253;-68
2022/02/28 01:06:48;;;;;;;619.22;587.33;;;;;;;1.91;70.53;103222.59;670510;29;22407;-69
2022/02/28 01:07:09;;;;;;;603.25;572.42;;;;;;;1.91;70.58;103216.38;670645;29;22278;-68
2022/02/28 01:07:31;;;;;;;602.40;571.58;;;;;;;1.91;70.65;103219.03;671229;29;21754;-68
2022/02/28 01:07:52;;;;;;;647.33;613.47;;;;;;;1.90;70.60;103220.84;670220;29;44404;-68
2022/02/28 01:08:16;;;;;;;651.50;617.30;;;;;;;1.91;70.63;103219.03;670193;29;45255;-68
2022/02/28 01:08:39;;;;;;;640.47;607.13;;;;;;;1.89;70.62;103224.44;666040;29;92250;-69
2022/02/28 01:09:02;;;;;;;624.10;591.90;;;;;;;1.89;70.58;103220.91;666429;29;69533;-69
2022/02/28 01:09:23;;;;;;;608.53;577.38;;;;;;;1.90;70.60;103220.84;667108;29;69261;-68
2022/02/28 01:09:44;;;;;;;626.65;594.25;;;;;;;1.89;70.63;103215.56;669812;29;21536;-69
2022/02/28 01:10:08;;;;;;;627.00;594.60;;;;;;;1.86;70.52;103218.38;670956;29;22330;-69
2022/02/28 01:10:30;;;;;;;612.65;581.20;;;;;;;1.86;70.54;103221.88;669036;29;93810;-68
2022/02/28 01:10:52;;;;;;;643.53;609.85;;;;;;;1.82;70.72;103219.41;669636;29;68183;-69
2022/02/28 01:11:13;;;;;;;649.20;615.25;;;;;;;1.82;70.48;103228.28;670683;29;22393;-68
2022/02/28 01:11:34;;;;;;;636.78;603.65;;;;;;;1.80;70.64;103223.00;670379;29;22370;-69
2022/02/28 01:11:56;;;;;;;621.10;589.10;;;;;;;1.79;70.60;103221.25;671039;29;23538;-69
2022/02/28 01:12:17;;;;;;;606.40;575.22;;;;;;;1.82;70.69;103217.63;669195;29;69421;-69
2022/02/28 01:12:39;;;;;;;643.80;610.05;;;;;;;1.82;70.65;103214.06;670944;29;22412;-68
2022/02/28 01:13:00;;;;;;;655.72;621.13;;;;;;;1.84;70.72;103215.75;670779;29;22410;-69
2022/02/28 01:13:25;;;;;;;640.47;607.10;;;;;;;1.84;70.68;103217.56;668809;29;92156;-68
2022/02/28 01:13:46;;;;;;;626.10;593.67;;;;;;;1.86;70.63;103218.38;669932;29;44382;-69
2022/02/28 01:14:08;;;;;;;609.45;578.08;;;;;;;1.85;70.63;103217.50;670739;29;22393;-69
2022/02/28 01:14:29;;;;;;;638.20;604.92;;;;;;;1.85;70.60;103216.63;669458;29;69409;-69
2022/02/28 01:14:51;;;;;;;639.28;606.03;;;;;;;1.84;70.75;103221.09;670054;29;46377;-69
2022/02/28 01:15:13;;;;;;;624.72;592.42;;;;;;;1.85;70.88;103224.59;669900;29;45232;-69
2022/02/28 01:15:34;;;;;;;609.75;578.45;;;;;;;1.80;70.91;103211.47;670192;29;46448;-68
2022/02/28 01:15:56;;;;;;;624.28;591.85;;;;;;;1.85;70.83;103214.84;671538;29;21537;-69
2022/02/28 01:16:17;;;;;;;653.90;619.40;;;;;;;1.85;70.98;103222.84;671118;29;47180;-68
2022/02/28 01:16:39;;;;;;;640.08;606.65;;;;;;;1.85;70.94;103220.16;673203;29;21502;-69
2022/02/28 01:17:00;;;;;;;629.25;596.55;;;;;;;1.86;70.98;103218.38;672838;29;22390;-68
2022/02/28 01:17:22;;;;;;;616.22;584.50;;;;;;;1.85;71.00;103217.50;670426;29;21360;-68
2022/02/28 01:17:43;;;;;;;615.20;583.40;;;;;;;1.85;71.16;103217.50;668955;29;69417;-69
2022/02/28 01:18:05;;;;;;;634.25;601.28;;;;;;;1.86;71.10;103215.69;670857;29;23485;-69
2022/02/28 01:18:27;;;;;;;622.92;590.75;;;;;;;1.86;71.17;103221.03;670004;29;46275;-69
2022/02/28 01:18:48;;;;;;;618.38;586.35;;;;;;;1.83;71.23;103211.34;667138;29;44199;-69
2022/02/28 01:19:09;;;;;;;651.17;616.92;;;;;;;1.83;71.24;103221.16;668680;29;22396;-68
2022/02/28 01:19:30;;;;;;;648.72;614.72;;;;;;;1.85;71.33;103216.63;669644;29;22436;-68
2022/02/28 01:19:52;;;;;;;634.15;601.20;;;;;;;1.84;71.27;103210.44;669269;29;22406;-69
2022/02/28 01:20:15;;;;;;;620.72;588.83;;;;;;;1.86;71.13;103211.22;669160;29;46148;-69
2022/02/28 01:20:36;;;;;;;645.40;611.67;;;;;;;1.86;71.41;103218.38;669286;29;44420;-69
2022/02/28 01:20:58;;;;;;;669.03;633.55;;;;;;;1.85;71.16;103211.28;670556;29;21466;-69
2022/02/28 01:21:21;;;;;;;654.10;619.78;;;;;;;1.86;71.23;103213.03;669585;29;44346;-68
2022/02/28 01:21:42;;;;;;;640.95;607.55;;;;;;;1.85;71.38;103216.63;670371;29;44243;-69
2022/02/28 01:22:03;;;;;;;623.70;591.40;;;;;;;1.84;71.38;103212.22;671313;29;23701;-68
2022/02/28 01:22:25;;;;;;;611.47;580.08;;;;;;;1.84;71.46;103204.25;670474;29;45213;-68
2022/02/28 01:22:46;;;;;;;649.10;615.05;;;;;;;1.84;71.44;103206.91;671148;29;22191;-68
2022/02/28 01:23:08;;;;;;;659.80;625.10;;;;;;;1.85;71.51;103211.28;671400;29;22401;-70
2022/02/28 01:23:29;;;;;;;644.65;611.00;;;;;;;1.85;71.52;103206.84;670105;29;45342;-69
2022/02/28 01:23:50;;;;;;;630.88;598.25;;;;;;;1.87;71.48;103207.66;670531;29;46610;-68
2022/02/28 01:24:12;;;;;;;617.63;585.78;;;;;;;1.89;71.50;103215.56;671338;29;21538;-69
2022/02/28 01:24:34;;;;;;;630.95;598.22;;;;;;;1.87;71.44;103210.31;670523;29;45241;-68
2022/02/28 01:24:55;;;;;;;635.85;602.70;;;;;;;1.88;71.54;103213.84;669650;29;46317;-68
2022/02/28 01:25:16;;;;;;;624.83;592.53;;;;;;;1.88;71.49;103214.72;671111;29;23586;-69
2022/02/28 01:25:38;;;;;;;611.03;579.65;;;;;;;1.88;71.48;103209.38;671111;29;21555;-69
2022/02/28 01:26:00;;;;;;;640.13;606.78;;;;;;;1.89;71.54;103211.09;670692;29;22347;-70
2022/02/28 01:26:21;;;;;;;645.90;612.05;;;;;;;1.89;71.41;103212.91;666483;29;45179;-68
2022/02/28 01:26:42;;;;;;;633.15;600.17;;;;;;;1.90;71.41;103210.19;668472;29;22391;-68
2022/02/28 01:27:03;;;;;;;617.05;585.25;;;;;;;1.89;71.34;103210.25;670244;29;45219;-69
2022/02/28 01:27:24;;;;;;;636.55;603.40;;;;;;;1.91;71.49;103208.38;670374;29;24027;-69
2022/02/28 01:27:47;;;;;;;657.65;623.10;;;;;;;1.88;71.46;103209.38;668536;29;22392;-70
2022/02/28 01:28:08;;;;;;;644.22;610.60;;;;;;;1.91;71.53;103213.72;668197;29;44199;-68
2022/02/28 01:28:29;;;;;;;630.13;597.55;;;;;;;1.91;71.39;103211.94;666604;29;44522;-69
2022/02/28 01:28:50;;;;;;;620.20;588.15;;;;;;;1.91;71.40;103211.94;667065;29;22376;-68
2022/02/28 01:29:12;;;;;;;659.95;625.05;;;;;;;1.92;71.33;103203.00;667229;29;21199;-68
2022/02/28 01:29:34;;;;;;;674.95;639.05;;;;;;;1.92;71.33;103200.31;663879;29;46326;-68
2022/02/28 01:29:55;;;;;;;659.42;624.78;;;;;;;1.92;71.34;103212.78;665327;29;23486;-70
2022/02/28 01:30:17;;;;;;;641.78;608.33;;;;;;;1.90;71.47;103207.53;667067;29;44527;-68
2022/02/28 01:30:39;;;;;;;626.47;594.15;;;;;;;1.93;71.48;103207.41;666966;29;46504;-68
2022/02/28 01:31:00;;;;;;;633.63;600.70;;;;;;;1.94;71.31;103205.59;666969;29;44393;-68
2022/02/28 01:31:21;;;;;;;672.88;637.13;;;;;;;1.95;71.20;103202.88;666371;29;23816;-69
2022/02/28 01:31:42;;;;;;;665.65;630.47;;;;;;;1.95;71.17;103205.53;667195;29;22402;-69
2022/02/28 01:32:05;;;;;;;654.20;619.88;;;;;;;1.96;71.23;103201.97;667786;29;22277;-69
2022/02/28 01:32:27;;;;;;;637.17;604.08;;;;;;;1.96;71.06;103203.75;664543;29;65122;-69
2022/02/28 01:32:48;;;;;;;623.75;591.55;;;;;;;1.96;71.15;103204.63;666056;29;23496;-69
2022/02/28 01:33:09;;;;;;;643.60;609.95;;;;;;;1.97;71.25;103205.47;665883;29;22444;-69
2022/02/28 01:33:32;;;;;;;660.92;626.17;;;;;;;1.95;71.21;103202.88;663574;29;21995;-69
2022/02/28 01:33:54;;;;;;;647.13;613.35;;;;;;;1.96;71.26;103207.28;661221;29;90172;-69
2022/02/28 01:34:15;;;;;;;634.67;601.78;;;;;;;1.94;71.17;103203.81;664780;29;23434;-69
2022/02/28 01:34:36;;;;;;;625.25;593.03;;;;;;;1.95;71.26;103202.00;668663;29;21325;-69
2022/02/28 01:34:57;;;;;;;645.30;611.58;;;;;;;1.95;71.23;103202.00;665697;29;46241;-69
2022/02/28 01:35:19;;;;;;;643.83;610.22;;;;;;;1.94;71.32;103202.94;666642;29;22216;-69
2022/02/28 01:35:40;;;;;;;624.15;591.92;;;;;;;1.95;71.30;103202.88;667706;29;44421;-68
2022/02/28 01:36:03;;;;;;;642.70;609.05;;;;;;;1.94;71.31;103201.16;665566;29;23562;-69
2022/02/28 01:36:24;;;;;;;663.53;628.42;;;;;;;1.94;71.47;103197.59;663391;29;67526;-69
2022/02/28 01:36:46;;;;;;;599.75;569.05;;;;;;;1.94;71.45;103203.81;666200;29;23438;-69
2022/02/28 01:37:08;;;;;;;584.30;554.65;;;;;;;1.95;71.44;103196.69;668707;29;8418;-69
2022/02/28 01:37:30;;;;;;;617.78;585.97;;;;;;;1.95;71.43;103202.88;667999;29;44598;-68
2022/02/28 01:37:51;;;;;;;618.35;586.58;;;;;;;1.96;71.46;103201.09;668644;29;22406;-69
2022/02/28 01:38:13;;;;;;;649.72;615.72;;;;;;;1.95;71.55;103207.34;670279;29;22478;-69
2022/02/28 01:38:34;;;;;;;651.90;617.78;;;;;;;1.96;71.46;103201.09;666960;29;46409;-69